createdAt,value
2023-05-11T00:00:55.751Z,1.04
2023-05-11T00:01:55.881Z,1.04
2023-05-11T00:02:56.133Z,1.04
2023-05-11T00:03:56.325Z,1.04
2023-05-11T00:04:56.289Z,1.04
2023-05-11T00:05:56.464Z,1.04
2023-05-11T00:06:56.611Z,1.04
2023-05-11T00:07:56.751Z,1.04
2023-05-11T00:08:56.917Z,1.04
2023-05-11T00:09:57.064Z,1.04
2023-05-11T00:10:57.216Z,1.04
2023-05-11T00:11:57.361Z,1.04
2023-05-11T00:12:57.521Z,1.04
2023-05-11T00:13:57.680Z,1.04
2023-05-11T00:14:58.348Z,1.04
2023-05-11T00:15:58.000Z,1.04
2023-05-11T00:16:58.081Z,1.04
2023-05-11T00:17:58.232Z,1.04
2023-05-11T00:18:58.413Z,1.04
2023-05-11T00:19:58.474Z,1.04
2023-05-11T00:20:58.635Z,1.04
2023-05-11T00:21:58.791Z,1.04
2023-05-11T00:22:58.950Z,1.04
2023-05-11T00:23:59.131Z,1.04
2023-05-11T00:24:59.225Z,1.04
2023-05-11T00:25:59.398Z,1.04
2023-05-11T00:26:59.609Z,1.04
2023-05-11T00:27:59.645Z,1.04
2023-05-11T00:28:59.797Z,1.04
2023-05-11T00:30:00.549Z,1.04
2023-05-11T00:31:00.163Z,1.04
2023-05-11T00:32:00.225Z,1.04
2023-05-11T00:33:00.439Z,1.04
2023-05-11T00:34:00.515Z,1.04
2023-05-11T00:35:00.593Z,1.04
2023-05-11T00:36:00.772Z,1.04
2023-05-11T00:37:00.857Z,1.04
2023-05-11T00:38:00.953Z,1.04
2023-05-11T00:39:01.069Z,1.04
2023-05-11T00:40:01.217Z,1.04
2023-05-11T00:41:01.355Z,1.04
2023-05-11T00:42:01.470Z,1.04
2023-05-11T00:43:01.627Z,1.04
2023-05-11T00:44:01.723Z,1.04
2023-05-11T00:45:02.362Z,1.04
2023-05-11T00:46:02.019Z,1.04
2023-05-11T00:47:02.222Z,1.04
2023-05-11T00:48:02.364Z,1.04
2023-05-11T00:49:02.516Z,1.04
2023-05-11T00:50:02.647Z,1.04
2023-05-11T00:51:02.761Z,1.04
2023-05-11T00:52:03.119Z,1.04
2023-05-11T00:53:03.081Z,1.04
2023-05-11T00:54:03.181Z,1.04
2023-05-11T00:55:03.296Z,1.04
2023-05-11T00:56:03.430Z,1.04
2023-05-11T00:57:03.573Z,1.04
2023-05-11T00:58:03.741Z,1.04
2023-05-11T00:59:03.889Z,1.04
2023-05-11T01:00:04.489Z,1.04
2023-05-11T01:01:04.229Z,1.04
2023-05-11T01:02:04.465Z,1.04
2023-05-11T01:03:04.467Z,1.04
2023-05-11T01:04:04.548Z,1.04
2023-05-11T01:05:04.707Z,1.04
2023-05-11T01:06:04.856Z,1.04
2023-05-11T01:07:05.011Z,1.04
2023-05-11T01:08:05.191Z,1.04
2023-05-11T01:09:05.306Z,1.04
2023-05-11T01:10:05.471Z,1.04
2023-05-11T01:11:05.624Z,1.04
2023-05-11T01:12:05.761Z,1.04
2023-05-11T01:13:05.912Z,1.04
2023-05-11T01:14:06.067Z,1.04
2023-05-11T01:15:06.723Z,1.04
2023-05-11T01:16:06.342Z,1.04
2023-05-11T01:17:06.471Z,1.04
2023-05-11T01:18:06.678Z,1.04
2023-05-11T01:19:06.937Z,1.04
2023-05-11T01:20:06.884Z,1.04
2023-05-11T01:21:07.048Z,1.04
2023-05-11T01:22:07.180Z,1.04
2023-05-11T01:23:07.323Z,1.04
2023-05-11T01:24:07.499Z,1.04
2023-05-11T01:25:07.645Z,1.04
2023-05-11T01:26:07.844Z,1.04
2023-05-11T01:27:07.893Z,1.04
2023-05-11T01:28:08.032Z,1.04
2023-05-11T01:29:08.207Z,1.04
2023-05-11T01:30:08.792Z,1.04
2023-05-11T01:31:08.450Z,1.04
2023-05-11T01:32:08.601Z,1.04
2023-05-11T01:33:08.774Z,1.04
2023-05-11T01:34:08.866Z,1.04
2023-05-11T01:35:08.931Z,1.04
2023-05-11T01:36:09.074Z,1.04
2023-05-11T01:37:09.856Z,1.04
2023-05-11T01:38:09.397Z,1.04
2023-05-11T01:39:10.055Z,1.04
2023-05-11T01:40:09.667Z,1.04
2023-05-11T01:41:09.822Z,1.04
2023-05-11T01:42:09.964Z,1.04
2023-05-11T01:43:10.118Z,1.04
2023-05-11T01:44:10.280Z,1.04
2023-05-11T01:45:10.902Z,1.04
2023-05-11T01:47:10.692Z,1.04
2023-05-11T01:48:10.917Z,1.04
2023-05-11T01:49:10.973Z,1.04
2023-05-11T01:50:11.114Z,1.04
2023-05-11T01:51:11.224Z,1.04
2023-05-11T01:52:11.384Z,1.04
2023-05-11T01:53:11.521Z,1.04
2023-05-11T01:54:11.624Z,1.04
2023-05-11T01:55:11.789Z,1.04
2023-05-11T01:56:11.958Z,1.04
2023-05-11T01:57:12.059Z,1.04
2023-05-11T01:58:12.187Z,1.04
2023-05-11T01:59:12.344Z,1.04
2023-05-11T02:00:13.068Z,1.04
2023-05-11T02:01:12.658Z,1.04
2023-05-11T02:02:12.846Z,1.04
2023-05-11T02:03:12.986Z,1.04
2023-05-11T02:04:13.062Z,1.04
2023-05-11T02:05:13.215Z,1.04
2023-05-11T02:06:13.353Z,1.04
2023-05-11T02:07:13.448Z,1.04
2023-05-11T02:08:13.581Z,1.04
2023-05-11T02:09:13.700Z,1.04
2023-05-11T02:10:13.897Z,1.04
2023-05-11T02:11:14.012Z,1.04
2023-05-11T02:12:14.151Z,1.04
2023-05-11T02:13:14.318Z,1.04
2023-05-11T02:14:14.466Z,1.04
2023-05-11T02:15:15.129Z,1.04
2023-05-11T02:16:14.833Z,1.04
2023-05-11T02:17:14.923Z,1.04
2023-05-11T02:18:15.079Z,1.04
2023-05-11T02:19:15.224Z,1.04
2023-05-11T02:20:15.396Z,1.04
2023-05-11T02:21:15.479Z,1.04
2023-05-11T02:22:15.628Z,1.04
2023-05-11T02:23:15.743Z,1.04
2023-05-11T02:24:15.897Z,1.04
2023-05-11T02:25:16.050Z,1.04
2023-05-11T02:26:16.191Z,1.04
2023-05-11T02:27:16.298Z,1.04
2023-05-11T02:28:16.446Z,1.04
2023-05-11T02:29:16.590Z,1.04
2023-05-11T02:30:17.690Z,1.04
2023-05-11T02:31:16.883Z,1.04
2023-05-11T02:32:16.954Z,1.04
2023-05-11T02:33:17.083Z,1.04
2023-05-11T02:34:17.252Z,1.04
2023-05-11T02:35:17.406Z,1.04
2023-05-11T02:36:17.556Z,1.04
2023-05-11T02:37:17.707Z,1.04
2023-05-11T02:38:17.895Z,1.04
2023-05-11T02:39:18.021Z,1.04
2023-05-11T02:40:18.306Z,1.04
2023-05-11T02:41:18.327Z,1.04
2023-05-11T02:42:18.482Z,1.04
2023-05-11T02:43:18.608Z,2
2023-05-11T02:44:18.724Z,2
2023-05-11T02:45:19.363Z,2
2023-05-11T02:46:19.027Z,2
2023-05-11T02:47:19.188Z,3.04
2023-05-11T02:48:19.324Z,3.04
2023-05-11T02:49:19.491Z,3.04
2023-05-11T02:50:19.775Z,3.04
2023-05-11T02:51:19.784Z,4
2023-05-11T02:52:19.938Z,4
2023-05-11T02:53:20.033Z,4
2023-05-11T02:54:20.181Z,5.04
2023-05-11T02:55:20.342Z,5.04
2023-05-11T02:56:20.486Z,6
2023-05-11T02:57:20.612Z,7.04
2023-05-11T02:58:20.824Z,7.04
2023-05-11T02:59:20.878Z,8
2023-05-11T03:00:21.892Z,9.04
2023-05-11T03:01:21.278Z,10
2023-05-11T03:02:21.347Z,11.04
2023-05-11T03:03:21.543Z,12
2023-05-11T03:04:21.560Z,14
2023-05-11T03:05:21.742Z,16
2023-05-11T03:06:21.849Z,17.04
2023-05-11T03:07:21.998Z,20
2023-05-11T03:08:22.149Z,23.04
2023-05-11T03:09:22.324Z,26
2023-05-11T03:10:22.463Z,29.04
2023-05-11T03:11:22.632Z,36
2023-05-11T03:12:22.763Z,44
2023-05-11T03:13:22.872Z,55.04
2023-05-11T03:14:23.006Z,69.04
2023-05-11T03:15:23.755Z,81.04
2023-05-11T03:16:23.344Z,105.04
2023-05-11T03:17:23.531Z,120
2023-05-11T03:18:23.712Z,132
2023-05-11T03:19:23.806Z,145.04
2023-05-11T03:20:23.946Z,161.04
2023-05-11T03:21:24.079Z,175.04
2023-05-11T03:22:24.231Z,196
2023-05-11T03:23:24.370Z,212
2023-05-11T03:24:24.538Z,225.12
2023-05-11T03:25:24.700Z,236
2023-05-11T03:26:24.832Z,247.04
2023-05-11T03:27:24.999Z,257.12
2023-05-11T03:28:25.095Z,272
2023-05-11T03:29:25.262Z,286.08
2023-05-11T03:30:25.400Z,303.04
2023-05-11T03:31:25.589Z,327.04
2023-05-11T03:32:25.727Z,361.28
2023-05-11T03:33:25.819Z,405.12
2023-05-11T03:34:25.956Z,440
2023-05-11T03:35:26.109Z,474.24
2023-05-11T03:36:26.193Z,519.04
2023-05-11T03:37:26.362Z,589.12
2023-05-11T03:38:26.511Z,653.12
2023-05-11T03:39:26.673Z,727.04
2023-05-11T03:40:26.779Z,810.24
2023-05-11T03:41:26.912Z,908.16
2023-05-11T03:42:27.025Z,999.04
2023-05-11T03:43:27.167Z,1096.32
2023-05-11T03:44:27.843Z,1151.36
2023-05-11T03:45:27.519Z,1199.36
2023-05-11T03:46:27.715Z,1245.44
2023-05-11T03:47:27.792Z,1281.28
2023-05-11T03:48:27.918Z,1404.16
2023-05-11T03:49:28.087Z,1502.72
2023-05-11T03:50:28.272Z,1602.56
2023-05-11T03:51:28.401Z,1655.04
2023-05-11T03:52:28.567Z,1719.04
2023-05-11T03:53:28.711Z,1770.24
2023-05-11T03:54:28.838Z,1850.88
2023-05-11T03:55:28.941Z,1898.24
2023-05-11T03:56:29.111Z,1884.16
2023-05-11T03:57:29.208Z,1815.04
2023-05-11T03:58:29.361Z,1742.08
2023-05-11T03:59:29.952Z,1687.04
2023-05-11T04:00:29.614Z,1660.16
2023-05-11T04:01:29.778Z,1684.48
2023-05-11T04:02:29.985Z,1742.08
2023-05-11T04:03:30.115Z,1811.2
2023-05-11T04:04:30.364Z,1931.52
2023-05-11T04:05:30.319Z,2062.08
2023-05-11T04:06:30.452Z,2214.4
2023-05-11T04:07:30.603Z,2361.6
2023-05-11T04:08:30.754Z,2488.32
2023-05-11T04:09:30.858Z,2533.12
2023-05-11T04:10:31.038Z,2503.68
2023-05-11T04:11:31.174Z,2471.68
2023-05-11T04:12:31.323Z,2516.48
2023-05-11T04:13:31.463Z,2688
2023-05-11T04:14:32.208Z,2926.08
2023-05-11T04:15:31.755Z,3118.08
2023-05-11T04:16:31.941Z,3304.96
2023-05-11T04:17:32.069Z,3435.52
2023-05-11T04:18:32.214Z,3530.24
2023-05-11T04:19:32.346Z,3571.2
2023-05-11T04:20:32.475Z,3642.88
2023-05-11T04:21:32.602Z,3706.88
2023-05-11T04:22:32.734Z,3773.44
2023-05-11T04:23:32.862Z,3901.44
2023-05-11T04:24:32.988Z,3991.04
2023-05-11T04:25:33.140Z,4111.36
2023-05-11T04:26:33.322Z,4439.04
2023-05-11T04:27:33.441Z,4810.24
2023-05-11T04:28:33.602Z,5240.32
2023-05-11T04:29:34.351Z,5391.36
2023-05-11T04:30:33.871Z,5365.76
2023-05-11T04:31:34.728Z,5173.76
2023-05-11T04:32:34.216Z,5002.24
2023-05-11T04:33:34.318Z,4869.12
2023-05-11T04:34:34.452Z,4794.88
2023-05-11T04:35:34.598Z,4776.96
2023-05-11T04:36:34.760Z,4774.4
2023-05-11T04:37:34.917Z,4733.44
2023-05-11T04:38:35.081Z,4656.64
2023-05-11T04:39:35.208Z,4664.32
2023-05-11T04:40:35.355Z,4643.84
2023-05-11T04:41:35.507Z,4600.32
2023-05-11T04:42:35.671Z,4559.36
2023-05-11T04:43:35.880Z,4426.24
2023-05-11T04:44:36.589Z,4395.52
2023-05-11T04:45:36.129Z,4441.6
2023-05-11T04:46:36.291Z,4444.16
2023-05-11T04:47:36.377Z,4428.8
2023-05-11T04:48:36.531Z,4369.92
2023-05-11T04:49:36.679Z,4416
2023-05-11T04:50:36.838Z,4492.8
2023-05-11T04:51:36.982Z,4518.4
2023-05-11T04:52:37.126Z,4515.84
2023-05-11T04:53:37.286Z,4572.16
2023-05-11T04:54:37.420Z,4712.96
2023-05-11T04:55:37.588Z,5114.88
2023-05-11T04:56:37.791Z,5524.48
2023-05-11T04:57:37.835Z,6036.48
2023-05-11T04:58:38.005Z,6466.56
2023-05-11T04:59:38.844Z,7116.8
2023-05-11T05:00:38.263Z,7521.28
2023-05-11T05:01:38.484Z,7848.96
2023-05-11T05:02:38.576Z,8043.52
2023-05-11T05:03:38.766Z,8934.399
2023-05-11T05:04:38.802Z,10147.84
2023-05-11T05:05:38.961Z,10977.279
2023-05-11T05:06:39.115Z,11356.16
2023-05-11T05:07:39.214Z,11827.2
2023-05-11T05:08:39.358Z,12298.239
2023-05-11T05:09:39.515Z,12892.16
2023-05-11T05:10:39.680Z,14161.92
2023-05-11T05:11:39.817Z,14837.76
2023-05-11T05:12:39.983Z,15267.84
2023-05-11T05:13:40.069Z,16066.56
2023-05-11T05:14:40.812Z,17981.44
2023-05-11T05:15:40.370Z,18718.72
2023-05-11T05:16:40.588Z,20019.2
2023-05-11T05:17:40.700Z,19148.8
2023-05-11T05:18:40.852Z,19630.08
2023-05-11T05:19:40.930Z,22056.96
2023-05-11T05:20:41.094Z,23203.84
2023-05-11T05:21:41.204Z,17274.88
2023-05-11T05:22:41.347Z,15339.52
2023-05-11T05:23:41.488Z,15933.439
2023-05-11T05:24:41.641Z,17377.28
2023-05-11T05:25:41.816Z,23203.84
2023-05-11T05:26:41.949Z,18677.76
2023-05-11T05:27:42.084Z,21544.96
2023-05-11T05:28:42.272Z,33628.16
2023-05-11T05:29:42.981Z,35614.72
2023-05-11T05:30:42.560Z,40509.44
2023-05-11T05:31:42.724Z,39157.76
2023-05-11T05:32:42.900Z,42024.96
2023-05-11T05:33:43.015Z,45096.96
2023-05-11T05:34:43.091Z,48742.4
2023-05-11T05:35:43.211Z,42967.04
2023-05-11T05:36:43.352Z,50749.44
2023-05-11T05:37:43.505Z,52551.68
2023-05-11T05:38:43.663Z,52879.36
2023-05-11T05:39:44.674Z,39014.4
2023-05-11T05:40:43.910Z,56033.28
2023-05-11T05:41:44.092Z,58777.6
2023-05-11T05:42:44.243Z,60088.32
2023-05-11T05:43:44.377Z,39546.88
2023-05-11T05:44:44.996Z,60129.28
2023-05-11T05:46:44.842Z,33628.16
2023-05-11T05:47:45.011Z,64675.84
2023-05-11T05:48:45.064Z,69263.36
2023-05-11T05:49:45.236Z,69672.96
2023-05-11T05:50:45.397Z,59514.88
2023-05-11T05:51:45.555Z,58327.04
2023-05-11T05:52:45.683Z,49438.72
2023-05-11T05:53:45.833Z,33669.12
2023-05-11T05:54:45.994Z,30760.96
2023-05-11T05:55:46.091Z,31846.4
2023-05-11T05:56:46.251Z,43212.8
2023-05-11T05:57:46.408Z,33075.2
2023-05-11T05:58:46.543Z,28241.92
2023-05-11T05:59:47.090Z,27627.52
2023-05-11T06:00:46.799Z,30474.24
2023-05-11T06:01:46.908Z,40611.84
2023-05-11T06:02:47.137Z,34918.4
2023-05-11T06:03:47.342Z,33853.44
2023-05-11T06:04:47.448Z,39137.28
2023-05-11T06:05:47.503Z,76185.6
2023-05-11T06:06:47.648Z,82739.2
2023-05-11T06:07:54.674Z,62300.16
2023-05-11T06:08:47.967Z,67584
2023-05-11T06:09:48.128Z,36331.52
2023-05-11T06:10:48.269Z,29163.52
2023-05-11T06:11:48.368Z,27156.48
2023-05-11T06:12:48.529Z,28180.48
2023-05-11T06:13:48.668Z,24535.04
2023-05-11T06:14:49.255Z,23633.92
2023-05-11T06:15:48.983Z,24780.8
2023-05-11T06:16:49.040Z,25395.2
2023-05-11T06:17:49.200Z,21688.32
2023-05-11T06:18:49.354Z,20490.24
2023-05-11T06:19:49.467Z,18944
2023-05-11T06:20:49.621Z,19240.96
2023-05-11T06:21:49.794Z,20305.92
2023-05-11T06:22:49.968Z,26112
2023-05-11T06:23:50.104Z,25395.2
2023-05-11T06:24:50.235Z,19886.08
2023-05-11T06:25:50.350Z,17397.76
2023-05-11T06:26:50.452Z,16394.24
2023-05-11T06:27:50.598Z,15564.8
2023-05-11T06:28:50.750Z,14131.199
2023-05-11T06:29:51.332Z,15196.159
2023-05-11T06:30:51.052Z,16732.16
2023-05-11T06:31:51.261Z,16394.24
2023-05-11T06:32:51.397Z,16506.88
2023-05-11T06:33:51.506Z,16005.12
2023-05-11T06:34:51.660Z,16619.52
2023-05-11T06:35:51.741Z,17827.84
2023-05-11T06:36:51.904Z,17766.4
2023-05-11T06:37:52.056Z,21217.28
2023-05-11T06:38:52.172Z,30760.96
2023-05-11T06:39:52.366Z,38809.6
2023-05-11T06:40:52.530Z,30863.36
2023-05-11T06:41:53.901Z,35901.44
2023-05-11T06:42:52.860Z,39976.96
2023-05-11T06:43:53.031Z,42516.48
2023-05-11T06:44:53.813Z,41492.48
2023-05-11T06:45:53.409Z,51896.32
2023-05-11T06:46:53.440Z,39649.28
2023-05-11T06:47:53.600Z,50216.96
2023-05-11T06:48:53.717Z,50421.76
2023-05-11T06:49:53.879Z,48578.56
2023-05-11T06:50:54.048Z,45752.32
2023-05-11T06:51:54.206Z,45711.36
2023-05-11T06:52:54.362Z,43458.56
2023-05-11T06:53:54.501Z,43294.72
2023-05-11T06:54:54.648Z,44032
2023-05-11T06:55:54.814Z,43868.16
2023-05-11T06:56:54.963Z,39034.88
2023-05-11T06:57:55.104Z,41082.88
2023-05-11T06:58:55.238Z,45301.76
2023-05-11T06:59:55.943Z,43335.68
2023-05-11T07:00:55.571Z,46817.28
2023-05-11T07:01:55.660Z,49602.56
2023-05-11T07:02:55.839Z,49070.08
2023-05-11T07:03:55.909Z,54804.48
2023-05-11T07:04:56.069Z,52142.08
2023-05-11T07:05:56.151Z,48947.2
2023-05-11T07:06:56.265Z,45219.84
2023-05-11T07:07:56.419Z,74260.48
2023-05-11T07:08:56.570Z,68730.88
2023-05-11T07:09:56.710Z,74792.96
2023-05-11T07:10:56.894Z,78807.04
2023-05-11T07:11:57.015Z,83845.12
2023-05-11T07:12:57.194Z,84377.6
2023-05-11T07:13:57.328Z,80527.36
2023-05-11T07:14:58.064Z,81387.52
2023-05-11T07:15:57.954Z,80486.4
2023-05-11T07:16:57.836Z,46735.36
2023-05-11T07:17:57.982Z,71065.6
2023-05-11T07:18:58.124Z,95191.04
2023-05-11T07:19:58.254Z,89620.48
2023-05-11T07:20:58.370Z,45875.2
2023-05-11T07:21:58.505Z,68812.8
2023-05-11T07:22:58.598Z,68526.08
2023-05-11T07:23:58.730Z,60743.68
2023-05-11T07:24:58.896Z,75284.48
2023-05-11T07:25:59.040Z,82616.32
2023-05-11T07:26:59.182Z,88883.2
2023-05-11T07:27:59.337Z,80814.08
2023-05-11T07:28:59.469Z,88883.2
2023-05-11T07:30:00.198Z,85114.88
2023-05-11T07:30:59.781Z,87736.32
2023-05-11T07:31:59.861Z,83271.68
2023-05-11T07:33:00.653Z,79175.68
2023-05-11T07:34:00.150Z,82862.08
2023-05-11T07:35:00.267Z,79790.08
2023-05-11T07:36:00.403Z,78766.08
2023-05-11T07:37:00.559Z,78684.16
2023-05-11T07:38:00.727Z,83845.12
2023-05-11T07:39:00.852Z,76595.2
2023-05-11T07:40:01.017Z,64552.96
2023-05-11T07:41:01.192Z,64880.64
2023-05-11T07:42:01.319Z,76922.88
2023-05-11T07:43:01.470Z,74465.28
2023-05-11T07:44:01.643Z,77496.32
2023-05-11T07:45:02.436Z,74711.04
2023-05-11T07:47:02.649Z,91340.8
2023-05-11T07:48:02.229Z,68608
2023-05-11T07:49:14.308Z,52510.72
2023-05-11T07:50:02.479Z,95518.72
2023-05-11T07:51:02.591Z,103219.2
2023-05-11T07:52:02.736Z,105185.28
2023-05-11T07:53:02.883Z,106168.32
2023-05-11T07:54:03.088Z,107069.44
2023-05-11T07:55:03.199Z,108298.23
2023-05-11T07:56:03.340Z,110346.23
2023-05-11T07:57:03.487Z,106659.84
2023-05-11T07:58:03.646Z,104120.32
2023-05-11T07:59:03.764Z,103055.36
2023-05-11T08:00:04.390Z,103383.04
2023-05-11T08:01:03.986Z,109608.96
2023-05-11T08:02:04.525Z,109281.28
2023-05-11T08:03:04.693Z,104693.76
2023-05-11T08:04:04.473Z,94126.08
2023-05-11T08:05:04.602Z,85360.64
2023-05-11T08:06:05.217Z,61399.04
2023-05-11T08:07:04.925Z,52510.72
2023-05-11T08:08:05.032Z,62300.16
2023-05-11T08:09:05.118Z,66273.28
2023-05-11T08:10:05.189Z,74506.24
2023-05-11T08:11:05.324Z,78643.2
2023-05-11T08:12:05.445Z,81960.96
2023-05-11T08:13:05.587Z,79585.28
2023-05-11T08:14:05.746Z,58286.08
2023-05-11T08:15:06.216Z,69099.52
2023-05-11T08:16:06.055Z,46120.96
2023-05-11T08:17:06.193Z,49274.88
2023-05-11T08:18:06.383Z,53248
2023-05-11T08:19:06.570Z,63324.16
2023-05-11T08:20:06.677Z,46735.36
2023-05-11T08:21:06.728Z,52224
2023-05-11T08:22:06.893Z,90193.92
2023-05-11T08:23:07.042Z,100925.44
2023-05-11T08:24:07.227Z,98058.23
2023-05-11T08:25:07.356Z,91996.16
2023-05-11T08:26:07.433Z,104366.08
2023-05-11T08:27:07.617Z,103301.12
2023-05-11T08:28:07.790Z,104038.4
2023-05-11T08:29:07.908Z,72704
2023-05-11T08:30:10.103Z,65904.64
2023-05-11T08:31:08.215Z,58941.44
2023-05-11T08:32:08.532Z,53125.12
2023-05-11T08:33:23.097Z,54845.44
2023-05-11T08:34:18.116Z,54108.16
2023-05-11T08:35:08.890Z,54763.52
2023-05-11T08:36:08.950Z,55746.56
2023-05-11T08:37:09.126Z,32952.32
2023-05-11T08:38:09.254Z,33361.92
2023-05-11T08:39:09.400Z,57098.24
2023-05-11T08:40:09.561Z,70000.64
2023-05-11T08:41:09.741Z,84377.6
2023-05-11T08:42:09.929Z,88965.12
2023-05-11T08:43:10.085Z,96829.44
2023-05-11T08:44:10.242Z,81387.52
2023-05-11T08:45:10.826Z,93470.72
2023-05-11T08:46:10.527Z,51363.84
2023-05-11T08:47:22.433Z,56074.24
2023-05-11T08:48:10.684Z,94863.36
2023-05-11T08:49:10.833Z,91668.48
2023-05-11T08:50:10.982Z,97648.64
2023-05-11T08:51:11.130Z,95109.12
2023-05-11T08:52:11.286Z,96010.23
2023-05-11T08:53:11.392Z,97320.96
2023-05-11T08:54:11.526Z,98385.91
2023-05-11T08:55:11.697Z,97320.96
2023-05-11T08:56:11.863Z,36331.52
2023-05-11T08:57:11.992Z,77250.56
2023-05-11T08:58:12.140Z,103137.28
2023-05-11T08:59:12.306Z,104284.16
2023-05-11T09:00:13.101Z,80732.16
2023-05-11T09:01:12.647Z,34754.56
2023-05-11T09:02:12.762Z,33239.04
2023-05-11T09:03:13.059Z,33464.32
2023-05-11T09:04:13.121Z,32870.4
2023-05-11T09:05:13.304Z,33484.8
2023-05-11T09:06:13.370Z,74465.28
2023-05-11T09:07:13.452Z,52469.76
2023-05-11T09:08:13.611Z,31825.92
2023-05-11T09:09:13.797Z,30023.68
2023-05-11T09:10:14.124Z,26849.28
2023-05-11T09:11:14.027Z,25600
2023-05-11T09:12:14.139Z,30085.12
2023-05-11T09:13:14.275Z,29163.52
2023-05-11T09:14:14.442Z,27340.8
2023-05-11T09:15:15.132Z,24432.64
2023-05-11T09:16:28.248Z,24064
2023-05-11T09:17:15.735Z,24801.28
2023-05-11T09:18:14.979Z,25190.4
2023-05-11T09:19:15.136Z,26316.8
2023-05-11T09:20:15.277Z,38830.08
2023-05-11T09:21:15.444Z,90275.84
2023-05-11T09:22:15.625Z,30208
2023-05-11T09:23:15.773Z,27422.72
2023-05-11T09:24:15.942Z,25354.24
2023-05-11T09:25:16.216Z,74301.44
2023-05-11T09:26:16.257Z,98058.23
2023-05-11T09:27:21.115Z,33054.72
2023-05-11T09:28:16.563Z,31682.56
2023-05-11T09:29:16.643Z,34754.56
2023-05-11T09:31:17.468Z,32092.16
2023-05-11T09:32:17.113Z,27054.08
2023-05-11T09:33:17.262Z,25333.76
2023-05-11T09:34:17.391Z,25395.2
2023-05-11T09:35:17.815Z,25784.32
2023-05-11T09:36:17.665Z,76185.6
2023-05-11T09:37:17.859Z,100270.08
2023-05-11T09:38:17.951Z,101498.88
2023-05-11T09:40:33.452Z,94699.52
2023-05-11T09:41:19.006Z,95846.4
2023-05-11T09:42:19.074Z,86343.68
2023-05-11T09:44:18.940Z,93716.48
2023-05-11T09:45:19.600Z,92979.2
2023-05-11T09:46:19.200Z,76718.08
2023-05-11T09:47:19.372Z,33689.6
2023-05-11T09:48:19.469Z,95027.2
2023-05-11T09:49:19.580Z,96092.16
2023-05-11T09:50:26.157Z,93388.8
2023-05-11T09:51:19.878Z,92979.2
2023-05-11T09:52:20.007Z,88064
2023-05-11T09:53:20.147Z,85688.32
2023-05-11T09:54:20.374Z,27033.6
2023-05-11T09:55:20.576Z,64471.04
2023-05-11T09:56:20.540Z,40488.96
2023-05-11T09:57:20.658Z,80773.12
2023-05-11T09:58:20.776Z,61112.32
2023-05-11T09:59:20.903Z,68812.8
2023-05-11T10:00:21.053Z,72212.48
2023-05-11T10:01:21.226Z,72212.48
2023-05-11T10:02:21.456Z,65044.48
2023-05-11T10:03:21.627Z,78069.76
2023-05-11T10:04:23.357Z,81059.84
2023-05-11T10:05:21.815Z,82206.72
2023-05-11T10:06:21.954Z,82247.68
2023-05-11T10:07:22.111Z,80240.64
2023-05-11T10:08:22.282Z,81100.8
2023-05-11T10:09:22.419Z,59392
2023-05-11T10:10:22.557Z,88391.68
2023-05-11T10:11:24.141Z,87736.32
2023-05-11T10:12:22.881Z,86753.28
2023-05-11T10:13:23.038Z,88227.84
2023-05-11T10:14:23.206Z,86589.44
2023-05-11T10:15:23.817Z,81510.4
2023-05-11T10:16:23.486Z,29224.96
2023-05-11T10:17:23.540Z,31416.32
2023-05-11T10:18:23.766Z,63160.32
2023-05-11T10:19:23.834Z,89374.72
2023-05-11T10:20:23.990Z,47022.08
2023-05-11T10:21:24.142Z,89948.16
2023-05-11T10:22:24.297Z,40181.76
2023-05-11T10:23:24.407Z,29163.52
2023-05-11T10:24:24.536Z,32747.52
2023-05-11T10:25:24.652Z,85196.8
2023-05-11T10:26:24.804Z,86016
2023-05-11T10:27:24.951Z,83517.44
2023-05-11T10:28:25.100Z,81100.8
2023-05-11T10:29:25.204Z,83394.56
2023-05-11T10:30:25.366Z,84459.52
2023-05-11T10:31:25.478Z,83640.32
2023-05-11T10:32:25.572Z,79626.24
2023-05-11T10:33:25.717Z,64675.84
2023-05-11T10:34:25.818Z,80568.32
2023-05-11T10:35:25.967Z,83640.32
2023-05-11T10:36:26.120Z,32522.24
2023-05-11T10:37:26.269Z,84213.76
2023-05-11T10:38:26.425Z,59023.36
2023-05-11T10:39:26.572Z,79011.84
2023-05-11T10:40:26.727Z,56729.6
2023-05-11T10:41:26.863Z,69591.04
2023-05-11T10:42:27.012Z,72294.4
2023-05-11T10:43:27.123Z,37539.84
2023-05-11T10:44:27.763Z,28999.68
2023-05-11T10:45:27.411Z,25190.4
2023-05-11T10:46:29.654Z,25292.8
2023-05-11T10:47:27.721Z,25743.36
2023-05-11T10:48:27.840Z,25948.16
2023-05-11T10:49:27.980Z,27770.88
2023-05-11T10:50:28.129Z,78520.32
2023-05-11T10:51:28.279Z,59596.8
2023-05-11T10:52:29.503Z,78561.28
2023-05-11T10:53:28.539Z,78110.72
2023-05-11T10:54:28.683Z,75653.12
2023-05-11T10:55:28.785Z,70983.68
2023-05-11T10:56:28.896Z,28323.84
2023-05-11T10:57:29.795Z,23838.72
2023-05-11T10:58:29.133Z,22814.72
2023-05-11T10:59:29.752Z,23121.92
2023-05-11T11:00:29.469Z,24371.2
2023-05-11T11:01:29.577Z,26357.76
2023-05-11T11:02:29.683Z,28344.32
2023-05-11T11:03:29.794Z,70492.16
2023-05-11T11:04:29.903Z,67092.48
2023-05-11T11:05:30.084Z,62627.84
2023-05-11T11:06:30.222Z,25210.88
2023-05-11T11:07:30.354Z,23674.88
2023-05-11T11:08:30.507Z,22036.48
2023-05-11T11:09:30.692Z,21852.16
2023-05-11T11:10:30.821Z,21913.6
2023-05-11T11:11:31.008Z,21811.2
2023-05-11T11:12:31.088Z,21544.96
2023-05-11T11:13:31.213Z,21401.6
2023-05-11T11:14:31.356Z,21053.44
2023-05-11T11:15:31.527Z,20613.12
2023-05-11T11:16:31.722Z,20439.04
2023-05-11T11:17:32.075Z,21217.28
2023-05-11T11:18:31.984Z,22159.36
2023-05-11T11:19:32.108Z,55091.2
2023-05-11T11:20:32.248Z,52142.08
2023-05-11T11:21:32.402Z,59310.08
2023-05-11T11:22:32.556Z,20346.88
2023-05-11T11:23:32.633Z,19691.52
2023-05-11T11:24:32.752Z,18165.76
2023-05-11T11:25:32.889Z,17367.04
2023-05-11T11:26:33.047Z,16732.16
2023-05-11T11:27:33.145Z,16793.6
2023-05-11T11:28:33.320Z,17162.24
2023-05-11T11:29:33.431Z,17233.92
2023-05-11T11:30:33.589Z,18432
2023-05-11T11:31:33.765Z,20213.76
2023-05-11T11:32:33.891Z,22159.36
2023-05-11T11:33:33.983Z,27176.96
2023-05-11T11:34:34.107Z,22773.76
2023-05-11T11:35:34.272Z,22814.72
2023-05-11T11:36:34.401Z,22855.68
2023-05-11T11:37:34.569Z,24248.32
2023-05-11T11:38:34.724Z,30638.08
2023-05-11T11:39:34.881Z,24145.92
2023-05-11T11:40:43.118Z,24514.56
2023-05-11T11:41:35.180Z,50831.36
2023-05-11T11:42:35.316Z,36802.56
2023-05-11T11:43:37.248Z,59228.16
2023-05-11T11:44:36.328Z,26173.44
2023-05-11T11:45:35.683Z,26214.4
2023-05-11T11:46:35.925Z,47185.92
2023-05-11T11:47:36.084Z,37724.16
2023-05-11T11:48:36.388Z,22282.24
2023-05-11T11:49:36.339Z,21237.76
2023-05-11T11:50:36.505Z,21135.36
2023-05-11T11:51:36.652Z,20889.6
2023-05-11T11:52:36.799Z,20541.44
2023-05-11T11:53:36.944Z,19886.08
2023-05-11T11:54:37.098Z,18800.64
2023-05-11T11:55:37.230Z,17274.88
2023-05-11T11:56:37.390Z,15708.159
2023-05-11T11:57:37.550Z,13690.88
2023-05-11T11:58:37.715Z,12206.08
2023-05-11T11:59:38.308Z,11018.24
2023-05-11T12:00:38.007Z,10864.64
2023-05-11T12:01:38.140Z,11284.479
2023-05-11T12:02:38.350Z,12216.319
2023-05-11T12:03:38.808Z,12851.2
2023-05-11T12:04:38.973Z,14796.8
2023-05-11T12:05:38.972Z,15523.84
2023-05-11T12:06:39.113Z,16414.72
2023-05-11T12:07:39.258Z,17530.88
2023-05-11T12:08:39.452Z,18472.96
2023-05-11T12:09:39.582Z,19435.52
2023-05-11T12:10:39.730Z,20377.6
2023-05-11T12:11:39.872Z,21422.08
2023-05-11T12:12:40.019Z,23511.04
2023-05-11T12:13:40.172Z,37150.72
2023-05-11T12:14:40.795Z,26890.24
2023-05-11T12:15:40.425Z,49315.84
2023-05-11T12:16:40.587Z,36167.68
2023-05-11T12:17:40.712Z,30699.52
2023-05-11T12:18:40.803Z,28692.48
2023-05-11T12:19:40.874Z,29696
2023-05-11T12:20:41.045Z,35983.36
2023-05-11T12:21:41.188Z,36904.96
2023-05-11T12:22:41.334Z,31784.96
2023-05-11T12:23:41.482Z,42721.28